createdAt,value
2023-04-01T00:02:24.427Z,70.19
2023-04-01T00:04:50.923Z,71.42
2023-04-01T00:07:17.430Z,70.43
2023-04-01T00:09:46.072Z,71.58
2023-04-01T00:12:12.592Z,71.14
2023-04-01T00:14:39.455Z,68.85
2023-04-01T00:17:05.990Z,69.69
2023-04-01T00:19:32.711Z,69.99
2023-04-01T00:21:59.562Z,69.37
2023-04-01T00:24:26.058Z,70.05
2023-04-01T00:26:52.996Z,68.89
2023-04-01T00:29:19.527Z,69.49
2023-04-01T00:31:46.124Z,68.28
2023-04-01T00:34:13.550Z,68.56
2023-04-01T00:36:40.137Z,68.96
2023-04-01T00:39:06.710Z,69.14
2023-04-01T00:41:33.398Z,69.83
2023-04-01T00:44:24.693Z,72.13
2023-04-01T00:46:51.492Z,72.93
2023-04-01T00:49:19.957Z,73.45
2023-04-01T00:51:48.335Z,73.13
2023-04-01T00:54:15.513Z,73.84
2023-04-01T00:56:51.751Z,74.31
2023-04-01T00:59:24.994Z,73.43
2023-04-01T01:01:51.720Z,72.44
2023-04-01T01:04:36.610Z,71.90
2023-04-01T01:07:43.399Z,71.74
2023-04-01T01:10:27.703Z,70.91
2023-04-01T01:12:54.147Z,71.55
2023-04-01T01:15:26.004Z,71.27
2023-04-01T01:18:01.782Z,71.90
2023-04-01T01:20:43.804Z,71.03
2023-04-01T01:23:16.318Z,70.35
2023-04-01T01:25:58.116Z,71.21
2023-04-01T01:28:48.556Z,70.54
2023-04-01T01:31:33.705Z,71.71
2023-04-01T01:34:23.688Z,71.77
2023-04-01T01:36:55.069Z,72.46
2023-04-01T01:39:22.186Z,74.19
2023-04-01T01:41:49.122Z,74.04
2023-04-01T01:44:17.164Z,72.89
2023-04-01T01:46:44.918Z,74.56
2023-04-01T01:49:12.772Z,74.12
2023-04-01T01:51:39.304Z,74.15
2023-04-01T01:54:05.846Z,73.67
2023-04-01T01:56:35.987Z,73.66
2023-04-01T01:59:05.090Z,73.23
2023-04-01T02:01:34.282Z,73.41
2023-04-01T02:04:01.140Z,72.64
2023-04-01T02:06:30.368Z,72.03
2023-04-01T02:09:00.351Z,71.07
2023-04-01T02:11:48.908Z,70.63
2023-04-01T02:14:18.314Z,70.38
2023-04-01T02:16:46.191Z,70.92
2023-04-01T02:19:13.410Z,70.04
2023-04-01T02:21:41.006Z,69.80
2023-04-01T02:24:12.496Z,69.90
2023-04-01T02:26:39.236Z,69.08
2023-04-01T02:29:06.645Z,69.00
2023-04-01T02:31:33.315Z,67.74
2023-04-01T02:34:00.061Z,68.66
2023-04-01T02:36:26.747Z,69.79
2023-04-01T02:38:53.393Z,68.73
2023-04-01T02:41:21.030Z,67.75
2023-04-01T02:43:47.558Z,68.10
2023-04-01T02:46:14.119Z,68.47
2023-04-01T02:48:40.686Z,67.72
2023-04-01T02:51:07.525Z,67.75
2023-04-01T02:53:34.024Z,66.88
2023-04-01T02:56:00.578Z,65.20
2023-04-01T02:58:27.101Z,66.40
2023-04-01T03:00:53.691Z,66.28
2023-04-01T03:03:20.268Z,66.70
2023-04-01T03:05:46.860Z,66.50
2023-04-01T03:08:13.431Z,67.03
2023-04-01T03:10:39.970Z,67.33
2023-04-01T03:13:06.528Z,67.49
2023-04-01T03:15:33.396Z,67.61
2023-04-01T03:18:01.927Z,67.81
2023-04-01T03:20:28.554Z,68.81
2023-04-01T03:22:55.046Z,69.41
2023-04-01T03:25:21.618Z,70.13
2023-04-01T03:27:48.130Z,69.85
2023-04-01T03:30:14.730Z,70.67
2023-04-01T03:32:41.421Z,70.88
2023-04-01T03:35:08.373Z,71.21
2023-04-01T03:37:34.875Z,72.49
2023-04-01T03:40:01.600Z,73.18
2023-04-01T03:42:28.095Z,74.50
2023-04-01T03:44:54.586Z,74.35
2023-04-01T03:47:21.098Z,74.70
2023-04-01T03:49:47.597Z,75.56
2023-04-01T03:52:14.112Z,76.81
2023-04-01T03:54:40.608Z,77.83
2023-04-01T03:57:07.261Z,77.35
2023-04-01T03:59:33.870Z,76.77
2023-04-01T04:02:00.388Z,78.43
2023-04-01T04:04:27.749Z,79.05
2023-04-01T04:06:54.899Z,79.21
2023-04-01T04:09:21.528Z,79.93
2023-04-01T04:11:48.060Z,78.57
2023-04-01T04:14:14.548Z,78.22
2023-04-01T04:16:41.243Z,78.24
2023-04-01T04:19:07.850Z,77.15
2023-04-01T04:21:34.492Z,77.76
2023-04-01T04:24:01.661Z,76.87
2023-04-01T04:26:28.300Z,76.66
2023-04-01T04:28:55.385Z,77.39
2023-04-01T04:31:26.877Z,77.24
2023-04-01T04:33:53.920Z,76.61
2023-04-01T04:36:23.083Z,75.87
2023-04-01T04:38:49.636Z,76.22
2023-04-01T04:41:18.161Z,77.32
2023-04-01T04:43:50.751Z,78.65
2023-04-01T04:46:17.811Z,79.93
2023-04-01T04:48:45.147Z,79.28
2023-04-01T04:51:17.907Z,80.08
2023-04-01T04:53:44.510Z,80.84
2023-04-01T04:56:11.138Z,80.77
2023-04-01T04:58:38.953Z,81.15
2023-04-01T05:01:10.257Z,81.36
2023-04-01T05:03:39.560Z,81.32
2023-04-01T05:06:06.986Z,81.36
2023-04-01T05:08:33.887Z,81.16
2023-04-01T05:11:01.332Z,81.56
2023-04-01T05:13:28.647Z,80.99
2023-04-01T05:15:55.311Z,80.00
2023-04-01T05:18:22.310Z,77.59
2023-04-01T05:20:50.676Z,77.71
2023-04-01T05:23:17.230Z,77.13
2023-04-01T05:25:44.376Z,77.17
2023-04-01T05:28:10.951Z,76.77
2023-04-01T05:30:37.559Z,75.80
2023-04-01T05:33:04.236Z,77.07
2023-04-01T05:35:30.955Z,77.74
2023-04-01T05:37:57.571Z,78.85
2023-04-01T05:40:24.164Z,79.62
2023-04-01T05:42:52.171Z,80.11
2023-04-01T05:45:18.678Z,80.12
2023-04-01T05:47:45.323Z,79.28
2023-04-01T05:50:12.052Z,79.73
2023-04-01T05:52:38.959Z,79.32
2023-04-01T05:55:06.250Z,79.73
2023-04-01T05:57:32.876Z,79.72
2023-04-01T05:59:59.380Z,80.78
2023-04-01T06:02:26.012Z,80.21
2023-04-01T06:05:02.555Z,80.40
2023-04-01T06:07:30.026Z,78.42
2023-04-01T06:09:56.561Z,77.59
2023-04-01T06:12:32.423Z,77.71
2023-04-01T06:15:11.823Z,77.73
2023-04-01T06:17:50.504Z,77.08
2023-04-01T06:20:25.706Z,76.98
2023-04-01T06:23:07.486Z,76.99
2023-04-01T06:25:54.265Z,76.30
2023-04-01T06:28:45.163Z,75.11
2023-04-01T06:31:35.048Z,75.23
2023-04-01T06:34:07.639Z,76.14
2023-04-01T06:36:59.062Z,74.87
2023-04-01T06:39:43.890Z,75.33
2023-04-01T06:42:25.651Z,73.63
2023-04-01T06:45:18.752Z,74.78
2023-04-01T06:48:03.993Z,74.87
2023-04-01T06:50:45.297Z,75.52
2023-04-01T06:53:14.391Z,77.20
2023-04-01T06:55:43.848Z,78.37
2023-04-01T06:58:23.366Z,78.60
2023-04-01T07:00:53.107Z,77.42
2023-04-01T07:03:42.933Z,77.88
2023-04-01T07:06:24.004Z,77.11
2023-04-01T07:08:50.702Z,78.58
2023-04-01T07:11:33.025Z,78.78
2023-04-01T07:14:06.808Z,78.59
2023-04-01T07:16:46.346Z,76.98
2023-04-01T07:19:32.640Z,78.39
2023-04-01T07:22:05.293Z,77.84
2023-04-01T07:24:40.794Z,78.05
2023-04-01T07:27:11.402Z,78.85
2023-04-01T07:29:38.114Z,78.44
2023-04-01T07:32:13.790Z,79.55
2023-04-01T07:34:54.076Z,80.19
2023-04-01T07:37:32.844Z,80.38
2023-04-01T07:40:05.067Z,80.07
2023-04-01T07:42:38.533Z,78.90
2023-04-01T07:45:26.007Z,79.70
2023-04-01T07:48:00.807Z,79.44
2023-04-01T07:50:33.960Z,79.46
2023-04-01T07:53:09.110Z,78.58
2023-04-01T07:55:44.759Z,78.61
2023-04-01T07:58:23.371Z,76.24
2023-04-01T08:01:03.429Z,74.83
2023-04-01T08:03:54.564Z,74.61
2023-04-01T08:07:04.661Z,73.86
2023-04-01T08:09:59.948Z,72.56
2023-04-01T08:12:32.604Z,71.39
2023-04-01T08:15:05.221Z,71.87
2023-04-01T08:17:44.857Z,71.28
2023-04-01T08:20:33.392Z,70.81
2023-04-01T08:23:22.732Z,69.64
2023-04-01T08:25:55.180Z,68.87
2023-04-01T08:28:44.377Z,70.09
2023-04-01T08:31:18.676Z,70.41
2023-04-01T08:33:47.430Z,68.43
2023-04-01T08:36:24.217Z,68.60
2023-04-01T08:38:57.006Z,67.73
2023-04-01T08:41:32.552Z,66.84
2023-04-01T08:44:05.064Z,67.74
2023-04-01T08:46:58.041Z,69.69
2023-04-01T08:49:57.669Z,69.95
2023-04-01T08:52:45.859Z,71.83
2023-04-01T08:55:24.309Z,69.69
2023-04-01T08:57:59.837Z,69.49
2023-04-01T09:00:29.392Z,68.59
2023-04-01T09:03:31.020Z,68.35
2023-04-01T09:06:06.612Z,66.73
2023-04-01T09:08:51.378Z,65.63
2023-04-01T09:11:32.178Z,65.69
2023-04-01T09:14:29.556Z,65.07
2023-04-01T09:17:05.214Z,63.87
2023-04-01T09:19:42.597Z,63.33
2023-04-01T09:22:34.781Z,63.63
2023-04-01T09:25:16.477Z,63.56
2023-04-01T09:27:52.267Z,61.63
2023-04-01T09:30:35.604Z,62.57
2023-04-01T09:33:23.152Z,62.81
2023-04-01T09:36:05.387Z,62.61
2023-04-01T09:38:47.451Z,62.44
2023-04-01T09:41:27.390Z,64.31
2023-04-01T09:44:04.000Z,65.06
2023-04-01T09:47:12.053Z,64.37
2023-04-01T09:50:04.760Z,65.34
2023-04-01T09:52:40.012Z,65.86
2023-04-01T09:55:41.999Z,66.78
2023-04-01T09:58:26.695Z,67.03
2023-04-01T10:01:08.441Z,66.03
2023-04-01T10:04:19.746Z,64.43
2023-04-01T10:07:23.650Z,67.66
2023-04-01T10:10:23.943Z,68.33
2023-04-01T10:12:56.326Z,70.10
2023-04-01T10:16:00.156Z,69.69
2023-04-01T10:18:47.531Z,68.37
2023-04-01T10:21:41.745Z,68.37
2023-04-01T10:24:29.834Z,66.66
2023-04-01T10:27:22.611Z,63.81
2023-04-01T10:30:07.389Z,62.46
2023-04-01T10:32:57.279Z,60.79
2023-04-01T10:35:26.941Z,60.79
2023-04-01T10:37:56.516Z,61.41
2023-04-01T10:40:56.107Z,60.81
2023-04-01T10:43:47.549Z,58.17
2023-04-01T10:46:40.514Z,59.93
2023-04-01T10:49:44.508Z,59.73
2023-04-01T10:52:32.405Z,58.59
2023-04-01T10:55:15.263Z,58.17
2023-04-01T10:57:53.907Z,58.44
2023-04-01T11:00:23.042Z,57.46
2023-04-01T11:03:19.556Z,58.89
2023-04-01T11:06:10.908Z,58.98
2023-04-01T11:09:11.532Z,59.03
2023-04-01T11:11:53.050Z,56.95
2023-04-01T11:14:43.535Z,60.77
2023-04-01T11:17:47.747Z,65.70
2023-04-01T11:20:34.296Z,70.56
2023-04-01T11:23:25.586Z,76.14
2023-04-01T11:26:07.265Z,78.16
2023-04-01T11:29:08.654Z,78.78
2023-04-01T11:31:53.933Z,79.69
2023-04-01T11:34:37.003Z,78.48
2023-04-01T11:37:18.097Z,76.59
2023-04-01T11:39:50.646Z,74.62
2023-04-01T11:42:46.612Z,71.53
2023-04-01T11:45:28.305Z,69.60
2023-04-01T11:48:24.846Z,67.14
2023-04-01T11:51:06.610Z,65.28
2023-04-01T11:53:57.337Z,63.92
2023-04-01T11:57:06.296Z,63.16
2023-04-01T11:59:40.596Z,65.33
2023-04-01T12:02:25.266Z,64.52
2023-04-01T12:05:10.384Z,61.99
2023-04-01T12:07:54.759Z,62.96
2023-04-01T12:10:23.855Z,62.74
2023-04-01T12:13:01.540Z,64.40
2023-04-01T12:16:06.017Z,62.23
2023-04-01T12:18:59.372Z,61.24
2023-04-01T12:21:39.873Z,60.42
2023-04-01T12:24:28.280Z,58.34
2023-04-01T12:27:19.462Z,59.03
2023-04-01T12:29:54.892Z,58.31
2023-04-01T12:32:31.741Z,56.14
2023-04-01T12:34:58.174Z,54.71
2023-04-01T12:37:43.044Z,55.29
2023-04-01T12:40:27.774Z,55.36
2023-04-01T12:43:22.107Z,53.93
2023-04-01T12:46:17.025Z,52.85
2023-04-01T12:48:54.799Z,53.00
2023-04-01T12:51:56.929Z,51.26
2023-04-01T12:54:33.694Z,51.36
2023-04-01T12:57:09.329Z,51.24
2023-04-01T13:00:13.297Z,52.60
2023-04-01T13:03:13.614Z,52.19
2023-04-01T13:06:18.556Z,52.26
2023-04-01T13:09:11.727Z,52.90
2023-04-01T13:11:57.183Z,53.15
2023-04-01T13:14:44.952Z,52.45
2023-04-01T13:17:49.070Z,53.57
2023-04-01T13:20:38.969Z,53.93
2023-04-01T13:23:24.143Z,55.74
2023-04-01T13:26:21.286Z,56.69
2023-04-01T13:29:26.850Z,55.12
2023-04-01T13:32:03.151Z,55.16
2023-04-01T13:34:38.652Z,56.10
2023-04-01T13:37:28.166Z,56.22
2023-04-01T13:40:19.210Z,56.00
2023-04-01T13:42:49.451Z,54.44
2023-04-01T13:52:23.848Z,52.36
2023-04-01T14:02:28.319Z,51.89
2023-04-01T14:05:26.488Z,52.63
2023-04-01T14:10:38.825Z,54.25
2023-04-01T14:20:23.999Z,53.22
2023-04-01T14:26:12.668Z,55.69
2023-04-01T14:28:44.730Z,56.69
2023-04-01T14:31:35.966Z,58.13
2023-04-01T14:34:30.014Z,58.46
2023-04-01T14:37:18.321Z,57.99
2023-04-01T14:40:01.303Z,59.10
2023-04-01T14:42:49.523Z,58.71
2023-04-01T14:45:43.402Z,58.42
2023-04-01T14:48:53.834Z,58.97
2023-04-01T15:05:51.159Z,67.85
2023-04-01T15:08:53.086Z,70.17
2023-04-01T15:11:50.418Z,70.93
2023-04-01T15:15:05.051Z,70.96
2023-04-01T15:17:48.042Z,70.52
2023-04-01T15:20:20.634Z,69.29
2023-04-01T15:23:11.004Z,69.66
2023-04-01T15:25:56.196Z,67.32
2023-04-01T15:28:25.774Z,67.83
2023-04-01T15:31:16.764Z,66.58
2023-04-01T15:33:51.494Z,65.59
2023-04-01T15:36:38.873Z,62.36
2023-04-01T15:39:09.260Z,61.12
2023-04-01T15:41:52.255Z,62.22
2023-04-01T15:44:53.914Z,62.09
2023-04-01T15:47:26.798Z,62.42
2023-04-01T15:50:31.980Z,63.64
2023-04-01T15:53:31.555Z,65.04
2023-04-01T15:56:20.167Z,64.50
2023-04-01T15:59:11.638Z,64.80
2023-04-01T16:02:09.079Z,64.15
2023-04-01T16:04:49.273Z,65.46
2023-04-01T16:07:24.669Z,65.30
2023-04-01T16:10:28.639Z,67.60
2023-04-01T16:13:07.019Z,68.02
2023-04-01T16:16:11.682Z,67.83
2023-04-01T16:18:53.342Z,66.85
2023-04-01T16:21:35.067Z,65.83
2023-04-01T16:24:30.947Z,66.16
2023-04-01T16:27:22.134Z,64.90
2023-04-01T16:30:26.485Z,64.15
2023-04-01T16:33:00.462Z,64.45
2023-04-01T16:35:35.345Z,64.20
2023-04-01T16:38:29.951Z,65.13
2023-04-01T16:41:08.518Z,64.73
2023-04-01T16:44:09.234Z,64.82
2023-04-01T16:46:39.357Z,64.99
2023-04-01T16:49:24.089Z,65.98
2023-04-01T16:52:09.424Z,66.67
2023-04-01T16:55:11.840Z,68.47
2023-04-01T16:58:10.649Z,68.25
2023-04-01T17:01:19.913Z,68.79
2023-04-01T17:07:04.641Z,68.76
2023-04-01T17:09:47.041Z,69.89
2023-04-01T17:12:39.811Z,69.77
2023-04-01T17:15:09.701Z,70.22
2023-04-01T17:17:46.853Z,69.86
2023-04-01T17:20:54.795Z,70.70
2023-04-01T17:23:26.133Z,71.72
2023-04-01T17:26:17.257Z,71.62
2023-04-01T17:28:54.247Z,72.03
2023-04-01T17:31:26.709Z,71.32
2023-04-01T17:34:05.104Z,72.08
2023-04-01T17:36:44.911Z,72.07
2023-04-01T17:39:38.886Z,71.91
2023-04-01T17:42:16.694Z,72.02
2023-04-01T17:44:55.531Z,72.76
2023-04-01T17:47:28.836Z,72.39
2023-04-01T17:50:20.356Z,72.91
2023-04-01T17:52:58.532Z,72.86
2023-04-01T17:55:48.520Z,74.64
2023-04-01T17:58:22.000Z,75.63
2023-04-01T18:01:21.183Z,75.98
2023-04-01T18:04:05.736Z,76.71
2023-04-01T18:06:35.024Z,75.61
2023-04-01T18:09:14.840Z,75.62
2023-04-01T18:12:08.070Z,75.49
2023-04-01T18:14:37.460Z,74.73
2023-04-01T18:17:09.747Z,75.42
2023-04-01T18:19:43.704Z,74.89
2023-04-01T18:22:29.152Z,74.94
2023-04-01T18:25:02.817Z,73.83
2023-04-01T18:27:33.182Z,74.25
2023-04-01T18:30:12.937Z,73.19
2023-04-01T18:32:52.949Z,73.88
2023-04-01T18:35:33.399Z,73.19
2023-04-01T18:38:09.134Z,72.71
2023-04-01T18:40:44.432Z,73.60
2023-04-01T18:43:34.357Z,72.45
2023-04-01T18:46:03.401Z,73.16
2023-04-01T18:48:47.310Z,73.36
2023-04-01T18:51:40.980Z,74.42
2023-04-01T18:54:28.383Z,74.91
2023-04-01T18:57:14.210Z,74.59
2023-04-01T18:59:48.154Z,75.25
2023-04-01T19:02:19.251Z,74.76
2023-04-01T19:04:58.010Z,74.66
2023-04-01T19:07:42.073Z,74.37
2023-04-01T19:10:25.434Z,74.83
2023-04-01T19:13:16.145Z,74.91
2023-04-01T19:16:01.774Z,74.02
2023-04-01T19:18:46.550Z,74.14
2023-04-01T19:21:34.596Z,74.28
2023-04-01T19:24:23.152Z,74.06
2023-04-01T19:27:12.846Z,74.59
2023-04-01T19:30:02.371Z,74.87
2023-04-01T19:32:56.382Z,74.83
2023-04-01T19:35:40.947Z,75.31
2023-04-01T19:38:21.181Z,75.70
2023-04-01T19:40:54.322Z,76.01
2023-04-01T19:43:27.180Z,75.66
2023-04-01T19:46:05.948Z,75.89
2023-04-01T19:48:38.790Z,76.29
2023-04-01T19:51:11.670Z,76.05
2023-04-01T19:53:55.801Z,76.19
2023-04-01T19:56:23.934Z,77.51
2023-04-01T19:59:02.862Z,77.49
2023-04-01T20:01:45.965Z,77.56
2023-04-01T20:04:18.969Z,77.67
2023-04-01T20:07:12.890Z,76.92
2023-04-01T20:10:01.135Z,76.99
2023-04-01T20:12:44.783Z,77.76
2023-04-01T20:15:46.752Z,77.95
2023-04-01T20:18:24.237Z,78.27
2023-04-01T20:21:15.403Z,78.15
2023-04-01T20:23:44.581Z,78.22
2023-04-01T20:26:13.050Z,78.10
2023-04-01T20:28:42.604Z,77.33
2023-04-01T20:31:29.147Z,76.42
2023-04-01T20:34:11.236Z,75.74
2023-04-01T20:36:56.498Z,75.44
2023-04-01T20:39:35.194Z,76.15
2023-04-01T20:42:23.040Z,77.11
2023-04-01T20:45:08.279Z,77.56
2023-04-01T20:48:00.803Z,78.21
2023-04-01T20:51:06.678Z,77.82
2023-04-01T20:54:10.624Z,78.29
2023-04-01T20:56:48.990Z,78.00
2023-04-01T20:59:19.318Z,77.48
2023-04-01T21:01:55.902Z,77.51
2023-04-01T21:04:28.495Z,78.90
2023-04-01T21:07:09.851Z,78.30
2023-04-01T21:09:54.915Z,78.74
2023-04-01T21:12:36.712Z,78.74
2023-04-01T21:15:12.612Z,79.02
2023-04-01T21:17:47.932Z,78.69
2023-04-01T21:20:20.198Z,79.09
2023-04-01T21:23:23.921Z,79.04
2023-04-01T21:26:10.395Z,78.30
2023-04-01T21:28:41.366Z,77.55
2023-04-01T21:31:32.743Z,75.00
2023-04-01T21:34:31.089Z,74.63
2023-04-01T21:37:18.569Z,75.20
2023-04-01T21:40:03.346Z,74.79
2023-04-01T21:42:39.923Z,73.81
2023-04-01T21:45:48.164Z,73.35
2023-04-01T21:48:51.878Z,73.70
2023-04-01T21:51:55.425Z,73.62
2023-04-01T21:54:43.391Z,72.65
2023-04-01T21:57:20.052Z,72.30
2023-04-01T22:00:27.379Z,71.64
2023-04-01T22:02:59.933Z,70.65
2023-04-01T22:05:34.731Z,70.52
2023-04-01T22:08:32.550Z,71.39
2023-04-01T22:11:24.437Z,72.28
2023-04-01T22:13:55.989Z,74.16
2023-04-01T22:16:42.629Z,75.02
2023-04-01T22:19:28.116Z,74.86
2023-04-01T22:22:13.741Z,74.83
2023-04-01T22:25:01.491Z,74.95
2023-04-01T22:27:29.646Z,73.07
2023-04-01T22:30:02.128Z,72.82
2023-04-01T22:32:38.321Z,72.72
2023-04-01T22:35:07.579Z,71.44
2023-04-01T22:38:00.132Z,71.29
2023-04-01T22:40:34.814Z,71.38
2023-04-01T22:43:18.448Z,72.54
2023-04-01T22:46:08.762Z,72.83
2023-04-01T22:48:42.199Z,74.99
2023-04-01T22:51:17.336Z,75.92
2023-04-01T22:53:49.828Z,75.94
2023-04-01T22:56:19.628Z,76.41
2023-04-01T22:58:53.158Z,75.98
2023-04-01T23:01:29.014Z,76.38
2023-04-01T23:03:56.934Z,76.63
2023-04-01T23:06:28.814Z,76.22
2023-04-01T23:09:09.969Z,76.75
2023-04-01T23:11:40.713Z,76.13
2023-04-01T23:14:22.631Z,75.63
2023-04-01T23:17:00.628Z,74.76
2023-04-01T23:19:35.964Z,75.06
2023-04-01T23:22:27.801Z,75.27
2023-04-01T23:24:57.640Z,75.12
2023-04-01T23:27:32.386Z,74.77
2023-04-01T23:29:58.962Z,75.90
2023-04-01T23:32:26.270Z,75.17
2023-04-01T23:34:55.344Z,75.78
2023-04-01T23:37:22.312Z,74.97
2023-04-01T23:39:59.248Z,75.43
2023-04-01T23:42:44.022Z,74.86
2023-04-01T23:45:16.464Z,73.84
2023-04-01T23:47:43.145Z,74.32
2023-04-01T23:50:17.795Z,74.06
2023-04-01T23:53:01.619Z,73.75
2023-04-01T23:55:35.216Z,73.50
2023-04-01T23:58:07.011Z,73.68
